Time;durP1;ratioP1;P1;durP2;ratioP2;P2;SDS_P1;SDS_P2;PMS_P1;PMS_P2;Temp;Humidity;BMP_temperature;BMP_pressure;BME280_temperature;BME280_humidity;BME280_pressure;Samples;Min_cycle;Max_cycle;Signal;HPM_P1;HPM_P2
2022/03/19 00:01:50;;;;;;;6.25;5.10;;;;;;;20.72;nan;100447.69;5132477;28;20043;-58
2022/03/19 00:04:16;;;;;;;6.40;5.30;;;;;;;20.68;nan;100446.75;5132715;28;20046;-59
2022/03/19 00:06:46;;;;;;;6.55;5.30;;;;;;;20.72;nan;100442.16;5132671;28;20047;-59
2022/03/19 00:09:12;;;;;;;5.93;5.13;;;;;;;20.71;nan;100448.84;5131555;27;20098;-59
2022/03/19 00:11:37;;;;;;;5.25;4.60;;;;;;;20.73;nan;100437.38;5132572;28;20519;-59
2022/03/19 00:14:03;;;;;;;5.90;4.93;;;;;;;20.72;nan;100435.78;5132719;27;20407;-59
2022/03/19 00:16:29;;;;;;;5.85;5.00;;;;;;;20.71;nan;100443.28;5132171;28;20083;-59
2022/03/19 00:18:55;;;;;;;6.18;5.30;;;;;;;20.71;nan;100434.94;5132332;28;20765;-59
2022/03/19 00:21:20;;;;;;;5.85;4.93;;;;;;;20.70;nan;100450.00;5132209;28;20051;-59
2022/03/19 00:23:47;;;;;;;5.70;4.70;;;;;;;20.72;nan;100435.78;5132307;28;20047;-59
2022/03/19 00:26:12;;;;;;;6.50;5.40;;;;;;;20.71;nan;100440.50;5131994;28;20043;-59
2022/03/19 00:28:40;;;;;;;6.90;5.75;;;;;;;20.69;nan;100448.38;5132232;28;20095;-59
2022/03/19 00:31:05;;;;;;;6.03;5.35;;;;;;;20.71;nan;100446.06;5132273;28;20134;-59
2022/03/19 00:33:31;;;;;;;7.00;6.00;;;;;;;20.70;nan;100455.56;5132214;28;20118;-59
2022/03/19 00:35:56;;;;;;;7.05;5.93;;;;;;;20.69;nan;100447.56;5131927;28;20050;-59
2022/03/19 00:38:22;;;;;;;7.90;6.75;;;;;;;20.70;nan;100458.34;5131924;28;20046;-59
2022/03/19 00:40:49;;;;;;;6.93;6.13;;;;;;;20.70;nan;100463.91;5131902;28;20093;-59
2022/03/19 00:43:15;;;;;;;7.38;6.07;;;;;;;20.71;nan;100461.94;5131892;27;20054;-59
2022/03/19 00:45:41;;;;;;;6.45;5.60;;;;;;;20.71;nan;100465.53;5131820;28;20092;-59
2022/03/19 00:48:06;;;;;;;6.53;5.70;;;;;;;20.70;nan;100454.75;5131925;28;20466;-59
2022/03/19 00:50:32;;;;;;;7.28;5.95;;;;;;;20.70;nan;100460.31;5131808;27;20035;-59
2022/03/19 00:52:57;;;;;;;7.75;6.50;;;;;;;20.71;nan;100464.72;5131815;28;20126;-59
2022/03/19 00:55:23;;;;;;;6.47;5.80;;;;;;;20.69;nan;100462.28;5131946;28;20084;-59
2022/03/19 00:57:49;;;;;;;7.53;6.10;;;;;;;20.70;nan;100465.88;5131647;28;20043;-59
2022/03/19 01:00:19;;;;;;;7.25;6.20;;;;;;;20.70;nan;100461.13;5131674;27;20043;-59
2022/03/19 01:02:44;;;;;;;8.38;6.20;;;;;;;20.70;nan;100460.31;5131902;28;20035;-59
2022/03/19 01:05:11;;;;;;;7.18;5.93;;;;;;;20.69;nan;100470.63;5131674;28;20039;-59
2022/03/19 01:07:45;;;;;;;7.80;6.28;;;;;;;20.68;nan;100463.44;5131521;28;20051;-58
2022/03/19 01:10:13;;;;;;;7.47;6.68;;;;;;;20.69;nan;100451.16;5131581;28;20495;-59
2022/03/19 01:12:39;;;;;;;7.00;5.90;;;;;;;20.69;nan;100464.25;5129599;28;20396;-59
2022/03/19 01:15:09;;;;;;;7.72;6.30;;;;;;;20.69;nan;100462.28;5131543;28;20530;-59
2022/03/19 01:17:34;;;;;;;7.70;6.40;;;;;;;20.68;nan;100459.84;5131430;28;20143;-59
2022/03/19 01:20:01;;;;;;;7.88;6.80;;;;;;;20.68;nan;100454.28;5102290;28;20081;-59
2022/03/19 01:22:28;;;;;;;7.85;6.75;;;;;;;20.68;nan;100457.06;5131385;27;20185;-59
2022/03/19 01:24:54;;;;;;;7.60;6.65;;;;;;;20.68;nan;100462.63;5131156;28;20043;-59
2022/03/19 01:27:20;;;;;;;7.95;6.65;;;;;;;20.65;nan;100466.94;5131133;27;20058;-59
2022/03/19 01:29:45;;;;;;;7.78;6.63;;;;;;;20.65;nan;100466.94;5131269;28;20047;-59
2022/03/19 01:32:11;;;;;;;7.82;6.80;;;;;;;20.66;nan;100471.34;5131234;28;20427;-59
2022/03/19 01:34:36;;;;;;;8.30;6.57;;;;;;;20.67;nan;100469.38;5130955;28;20104;-58
2022/03/19 01:37:02;;;;;;;7.50;6.63;;;;;;;20.68;nan;100480.13;5130945;28;20062;-59
2022/03/19 01:39:28;;;;;;;7.43;6.22;;;;;;;20.67;nan;100472.94;5108548;28;20120;-58
2022/03/19 01:41:53;;;;;;;7.43;6.13;;;;;;;20.69;nan;100470.63;5110490;28;20059;-47
2022/03/19 01:44:20;;;;;;;7.75;6.53;;;;;;;20.66;nan;100479.66;5110703;28;20043;-48
2022/03/19 01:46:55;;;;;;;7.05;5.93;;;;;;;20.67;nan;100484.06;5110473;28;20054;-48
2022/03/19 01:49:21;;;;;;;6.75;6.00;;;;;;;20.69;nan;100476.19;5110622;28;20039;-49
2022/03/19 01:51:46;;;;;;;7.60;6.70;;;;;;;20.69;nan;100480.94;5110449;28;20128;-47
2022/03/19 01:54:12;;;;;;;7.40;6.55;;;;;;;20.70;nan;100477.00;5110447;28;20044;-51
2022/03/19 01:56:38;;;;;;;8.35;6.82;;;;;;;20.68;nan;100474.56;5110421;28;20044;-48
2022/03/19 01:59:04;;;;;;;7.43;6.60;;;;;;;20.68;nan;100471.78;5110376;28;20456;-47
2022/03/19 02:01:29;;;;;;;7.72;6.65;;;;;;;20.69;nan;100476.19;5110289;28;20052;-46
2022/03/19 02:03:56;;;;;;;7.40;6.13;;;;;;;20.68;nan;100468.19;5110228;28;20123;-49
2022/03/19 02:06:25;;;;;;;7.45;6.28;;;;;;;20.69;nan;100472.59;5110267;28;20040;-47
2022/03/19 02:08:52;;;;;;;9.35;7.63;;;;;;;20.68;nan;100470.97;5110146;28;20071;-49
2022/03/19 02:11:17;;;;;;;7.97;6.47;;;;;;;20.67;nan;100467.41;5110078;28;20047;-47
2022/03/19 02:13:42;;;;;;;8.25;7.10;;;;;;;20.68;nan;100468.19;5110126;28;20036;-47
2022/03/19 02:16:09;;;;;;;8.32;6.72;;;;;;;20.70;nan;100469.47;5110008;28;20402;-47
2022/03/19 02:18:34;;;;;;;7.97;6.70;;;;;;;20.70;nan;100468.66;5110015;28;20101;-49
2022/03/19 02:21:01;;;;;;;8.25;7.05;;;;;;;20.69;nan;100464.25;5109792;28;20044;-49
2022/03/19 02:26:12;;;;;;;8.68;7.13;;;;;;;20.69;nan;100459.50;5110152;28;20078;-59
2022/03/19 02:28:37;;;;;;;8.68;6.90;;;;;;;20.69;nan;100467.84;5110019;28;20507;-59
2022/03/19 02:31:03;;;;;;;7.00;6.30;;;;;;;20.70;nan;100455.56;5109834;28;20044;-59
2022/03/19 02:33:31;;;;;;;9.98;7.07;;;;;;;20.69;nan;100459.50;5112015;28;20138;-59
2022/03/19 02:35:57;;;;;;;7.85;6.72;;;;;;;20.68;nan;100463.44;5113721;28;20047;-59
2022/03/19 02:38:22;;;;;;;8.05;6.90;;;;;;;20.67;nan;100461.84;5113411;28;20084;-59
2022/03/19 02:40:48;;;;;;;7.32;6.38;;;;;;;20.67;nan;100467.41;5113373;28;20059;-59
2022/03/19 02:43:13;;;;;;;8.32;6.82;;;;;;;20.66;nan;100465.78;5113405;28;20116;-59
2022/03/19 02:45:39;;;;;;;7.55;6.40;;;;;;;20.67;nan;100464.59;5113492;28;20036;-59
2022/03/19 02:48:05;;;;;;;8.18;6.63;;;;;;;20.65;nan;100461.38;5113259;28;20477;-59
2022/03/19 02:50:34;;;;;;;7.40;6.60;;;;;;;20.65;nan;100466.13;5113261;28;20507;-59
2022/03/19 02:53:03;;;;;;;8.55;7.35;;;;;;;20.65;nan;100471.69;5095486;28;20047;-58
2022/03/19 02:55:36;;;;;;;7.57;6.53;;;;;;;20.66;nan;100470.53;5113388;28;20407;-58
2022/03/19 02:58:01;;;;;;;;;;;;;;;20.69;nan;100467.03;5113646;28;20043;-59
2022/03/19 03:00:27;;;;;;;8.13;6.30;;;;;;;20.65;nan;100464.16;5112882;28;20268;-58
2022/03/19 03:02:53;;;;;;;7.60;6.50;;;;;;;20.65;nan;100464.16;5113195;28;20039;-59
2022/03/19 03:05:18;;;;;;;7.28;6.32;;;;;;;20.66;nan;100460.22;5113065;28;20047;-59
2022/03/19 03:07:44;;;;;;;7.88;6.43;;;;;;;20.65;nan;100460.56;5113190;28;20047;-58
2022/03/19 03:10:09;;;;;;;8.73;7.18;;;;;;;20.66;nan;100468.56;5112727;28;20079;-58
2022/03/19 03:12:35;;;;;;;8.43;6.70;;;;;;;20.63;nan;100455.34;5112652;28;20122;-58
2022/03/19 03:15:01;;;;;;;8.13;6.75;;;;;;;20.66;nan;100465.78;5112893;28;20515;-59
2022/03/19 03:17:27;;;;;;;7.47;6.28;;;;;;;20.66;nan;100465.78;5112807;28;20061;-59
2022/03/19 03:19:53;;;;;;;7.03;6.10;;;;;;;20.67;nan;100467.41;5112745;28;20127;-59
2022/03/19 03:22:18;;;;;;;6.93;5.88;;;;;;;20.68;nan;100462.63;5112660;28;20139;-59
2022/03/19 03:24:44;;;;;;;7.43;5.82;;;;;;;20.66;nan;100462.19;5113004;28;20039;-59
2022/03/19 03:27:09;;;;;;;7.93;6.43;;;;;;;20.67;nan;100461.03;5112819;28;20079;-59
2022/03/19 03:29:35;;;;;;;7.68;6.55;;;;;;;20.68;nan;100462.63;5112803;28;20036;-59
2022/03/19 03:32:00;;;;;;;7.28;6.28;;;;;;;20.69;nan;100472.59;5112589;28;20063;-59
2022/03/19 03:34:26;;;;;;;7.70;6.75;;;;;;;20.70;nan;100474.22;5112612;28;20048;-58
2022/03/19 03:36:51;;;;;;;7.97;6.90;;;;;;;20.70;nan;100483.38;5112463;28;20038;-59
2022/03/19 03:39:17;;;;;;;7.70;6.35;;;;;;;20.71;nan;100479.41;5112513;28;20055;-59
2022/03/19 03:41:45;;;;;;;8.02;6.68;;;;;;;20.72;nan;100480.25;5112486;28;20114;-59
2022/03/19 03:44:10;;;;;;;8.30;7.10;;;;;;;20.69;nan;100478.97;5111383;28;20180;-59
2022/03/19 03:46:36;;;;;;;9.57;6.82;;;;;;;20.71;nan;100486.94;5112495;28;20135;-59
2022/03/19 03:49:01;;;;;;;7.40;6.32;;;;;;;20.70;nan;100486.16;5112440;28;20124;-48
2022/03/19 03:51:27;;;;;;;8.15;6.47;;;;;;;20.72;nan;100488.59;5112482;28;20406;-48
2022/03/19 03:53:52;;;;;;;8.23;6.82;;;;;;;20.71;nan;100484.97;5112312;28;20093;-59
2022/03/19 03:56:18;;;;;;;8.82;7.15;;;;;;;20.73;nan;100493.00;5112264;28;20048;-58
2022/03/19 03:58:43;;;;;;;7.68;6.18;;;;;;;20.71;nan;100489.72;5112161;28;20043;-59
2022/03/19 04:01:09;;;;;;;7.50;6.55;;;;;;;20.69;nan;100492.06;5112125;28;20044;-58
2022/03/19 04:03:35;;;;;;;8.07;7.13;;;;;;;20.71;nan;100487.75;5112264;28;20135;-59
2022/03/19 04:06:00;;;;;;;8.05;6.97;;;;;;;20.72;nan;100486.63;5112404;28;20043;-59
2022/03/19 04:08:26;;;;;;;12.35;7.28;;;;;;;20.71;nan;100486.94;5112446;28;20043;-59
2022/03/19 04:10:51;;;;;;;8.77;7.35;;;;;;;20.70;nan;100493.69;5112078;28;20043;-58
2022/03/19 04:13:17;;;;;;;7.57;6.43;;;;;;;20.70;nan;100494.47;5112121;28;20043;-59
2022/03/19 04:15:42;;;;;;;7.25;6.40;;;;;;;20.69;nan;100492.88;5111833;28;20048;-58
2022/03/19 04:18:08;;;;;;;7.75;6.85;;;;;;;20.69;nan;100494.84;5112105;28;20065;-59
2022/03/19 04:20:33;;;;;;;8.30;6.70;;;;;;;20.69;nan;100492.88;5111790;28;20138;-59
2022/03/19 04:22:58;;;;;;;8.05;6.80;;;;;;;20.68;nan;100496.00;5111868;28;20048;-59
2022/03/19 04:25:25;;;;;;;8.35;6.80;;;;;;;20.67;nan;100489.63;5111928;28;20064;-58
2022/03/19 04:27:55;;;;;;;9.13;7.63;;;;;;;20.65;nan;100486.41;5111855;28;20040;-59
2022/03/19 04:30:24;;;;;;;9.43;8.02;;;;;;;20.65;nan;100480.84;5111686;28;20039;-59
2022/03/19 04:32:52;;;;;;;9.20;7.10;;;;;;;20.64;nan;100487.53;5112000;28;20040;-59
2022/03/19 04:38:06;;;;;;;7.88;6.97;;;;;;;20.65;nan;100486.41;5111766;28;20067;-59
2022/03/19 04:40:31;;;;;;;9.55;7.78;;;;;;;20.63;nan;100488.69;5111382;28;20047;-59
2022/03/19 04:42:57;;;;;;;8.43;7.22;;;;;;;20.65;nan;100486.41;5111499;28;20047;-59
2022/03/19 04:45:24;;;;;;;8.50;6.82;;;;;;;20.64;nan;100484.75;5111538;28;20427;-59
2022/03/19 04:47:50;;;;;;;8.13;7.20;;;;;;;20.65;nan;100491.97;5111462;28;20521;-59
2022/03/19 04:50:15;;;;;;;8.10;6.75;;;;;;;20.65;nan;100486.41;5111433;28;20454;-59
2022/03/19 04:52:41;;;;;;;8.70;7.15;;;;;;;20.61;nan;100479.91;5111613;28;20044;-59
2022/03/19 04:55:07;;;;;;;7.43;6.50;;;;;;;20.61;nan;100479.91;5111108;28;20426;-59
2022/03/19 04:57:33;;;;;;;7.68;6.53;;;;;;;20.60;nan;100476.31;5111420;28;20439;-59
2022/03/19 04:59:59;;;;;;;7.43;6.60;;;;;;;20.62;nan;100481.50;5111388;28;20051;-59
2022/03/19 05:02:24;;;;;;;7.50;6.43;;;;;;;20.63;nan;100480.34;5111086;28;20321;-58
2022/03/19 05:04:57;;;;;;;7.85;7.00;;;;;;;20.63;nan;100483.13;5111215;28;20158;-58
2022/03/19 05:07:24;;;;;;;7.75;6.43;;;;;;;20.63;nan;100479.53;5111267;28;20051;-59
2022/03/19 05:12:37;;;;;;;7.70;6.35;;;;;;;20.62;nan;100484.28;5111150;28;20147;-48
2022/03/19 05:15:03;;;;;;;8.00;6.72;;;;;;;20.62;nan;100475.97;5111065;28;20131;-46
2022/03/19 05:17:29;;;;;;;7.88;6.82;;;;;;;20.61;nan;100480.69;5111011;28;20134;-50
2022/03/19 05:19:54;;;;;;;7.22;6.28;;;;;;;20.60;nan;100479.09;5111044;28;20035;-48
2022/03/19 05:22:20;;;;;;;7.55;6.38;;;;;;;20.63;nan;100488.69;5110935;28;20402;-47
2022/03/19 05:24:46;;;;;;;7.90;6.55;;;;;;;20.62;nan;100484.28;5110901;28;20088;-47
2022/03/19 05:27:12;;;;;;;7.47;6.35;;;;;;;20.62;nan;100492.63;5110666;28;20058;-48
2022/03/19 05:29:38;;;;;;;7.80;6.60;;;;;;;20.63;nan;100494.25;5110732;28;20058;-48
2022/03/19 05:32:04;;;;;;;7.35;6.10;;;;;;;20.61;nan;100497.38;5111036;28;20032;-48
2022/03/19 05:34:31;;;;;;;7.38;6.32;;;;;;;20.62;nan;100492.63;5110837;28;20043;-49
2022/03/19 05:36:58;;;;;;;7.00;6.25;;;;;;;20.62;nan;100500.97;5110747;28;20297;-47
2022/03/19 05:39:23;;;;;;;7.43;6.63;;;;;;;20.64;nan;100500.63;5110645;28;20048;-48
2022/03/19 05:41:49;;;;;;;6.93;6.22;;;;;;;20.63;nan;100505.38;5110458;28;20051;-47
2022/03/19 05:44:14;;;;;;;8.00;6.60;;;;;;;20.61;nan;100502.13;5110401;28;20050;-49
2022/03/19 05:46:40;;;;;;;8.13;6.53;;;;;;;20.62;nan;100500.97;5110537;28;20058;-48
2022/03/19 05:49:05;;;;;;;7.88;6.68;;;;;;;20.63;nan;100505.38;5110491;28;20044;-47
2022/03/19 05:51:31;;;;;;;7.43;6.55;;;;;;;20.64;nan;100508.97;5092161;28;20384;-49
2022/03/19 05:53:57;;;;;;;7.75;6.70;;;;;;;20.63;nan;100510.94;5110438;28;20048;-47
2022/03/19 05:56:24;;;;;;;8.10;6.90;;;;;;;20.65;nan;100511.41;5110591;28;20854;-47
2022/03/19 05:58:50;;;;;;;7.53;6.40;;;;;;;20.65;nan;100505.84;5110451;28;20039;-49
2022/03/19 06:01:16;;;;;;;7.38;6.22;;;;;;;20.63;nan;100513.72;5110185;28;20050;-52
2022/03/19 06:03:41;;;;;;;7.60;6.60;;;;;;;20.63;nan;100508.16;5110322;28;20050;-48
2022/03/19 06:06:07;;;;;;;7.70;6.32;;;;;;;20.65;nan;100513.38;5110269;28;20050;-48
2022/03/19 06:08:32;;;;;;;7.45;6.30;;;;;;;20.64;nan;100508.97;5109295;28;20050;-50
2022/03/19 06:10:58;;;;;;;8.23;6.60;;;;;;;20.63;nan;100510.94;5110377;28;20695;-47
2022/03/19 06:13:24;;;;;;;8.20;6.50;;;;;;;20.65;nan;100519.75;5110322;28;20040;-47
2022/03/19 06:15:49;;;;;;;7.70;6.45;;;;;;;20.65;nan;100521.72;5110203;28;20040;-49
2022/03/19 06:18:15;;;;;;;7.80;6.47;;;;;;;20.64;nan;100522.84;5110245;28;20059;-48
2022/03/19 06:20:40;;;;;;;8.40;6.93;;;;;;;20.65;nan;100519.75;5110093;28;20044;-48
2022/03/19 06:23:05;;;;;;;7.82;6.47;;;;;;;20.65;nan;100524.50;5110120;28;20088;-47
2022/03/19 06:25:31;;;;;;;7.63;6.20;;;;;;;20.65;nan;100530.88;5110118;28;20047;-48
2022/03/19 06:27:56;;;;;;;7.72;6.55;;;;;;;20.64;nan;100531.19;5110097;28;20089;-50
2022/03/19 06:30:23;;;;;;;7.63;6.55;;;;;;;20.64;nan;100529.22;5110143;28;20423;-47
2022/03/19 06:32:48;;;;;;;8.55;6.53;;;;;;;20.65;nan;100530.06;5109806;28;20048;-46
2022/03/19 06:37:19;;;;;;;8.20;6.70;;;;;;;20.65;nan;100535.63;5109699;28;20419;-48
2022/03/19 06:37:59;;;;;;;7.20;5.95;;;;;;;20.63;nan;100535.94;5108778;28;20100;-48
2022/03/19 06:40:25;;;;;;;7.47;6.38;;;;;;;20.64;nan;100539.53;5109724;28;20039;-49
2022/03/19 06:42:51;;;;;;;7.97;7.07;;;;;;;20.64;nan;100542.31;5109595;28;20053;-47
2022/03/19 06:45:17;;;;;;;8.18;7.07;;;;;;;20.63;nan;100535.94;5109659;28;20040;-48
2022/03/19 06:47:42;;;;;;;8.05;6.80;;;;;;;20.62;nan;100531.56;5109827;28;20043;-48
2022/03/19 06:50:08;;;;;;;8.13;6.50;;;;;;;20.62;nan;100537.09;5109660;28;20054;-48
2022/03/19 06:52:33;;;;;;;8.45;6.90;;;;;;;20.63;nan;100543.47;5109585;28;20503;-47
2022/03/19 06:54:59;;;;;;;8.32;6.68;;;;;;;20.64;nan;100547.88;5109438;28;20055;-49
2022/03/19 06:57:24;;;;;;;8.90;7.18;;;;;;;20.63;nan;100544.28;5109841;28;20059;-48
2022/03/19 06:59:50;;;;;;;7.50;6.22;;;;;;;20.64;nan;100539.53;5109444;28;20044;-48
2022/03/19 07:02:15;;;;;;;8.48;6.97;;;;;;;20.63;nan;100544.28;5109382;28;20056;-48
2022/03/19 07:04:41;;;;;;;7.60;6.50;;;;;;;20.61;nan;100535.50;5109711;28;20115;-49
2022/03/19 07:07:06;;;;;;;7.38;6.55;;;;;;;20.63;nan;100538.72;5109426;28;20040;-47
2022/03/19 07:09:32;;;;;;;8.18;6.80;;;;;;;20.64;nan;100534.78;5109370;28;20050;-51
2022/03/19 07:11:57;;;;;;;7.95;6.65;;;;;;;20.64;nan;100533.97;5109397;28;20135;-47
2022/03/19 07:14:23;;;;;;;8.23;6.90;;;;;;;20.65;nan;100532.84;5109280;28;20084;-47
2022/03/19 07:16:48;;;;;;;8.45;6.60;;;;;;;20.64;nan;100540.34;5109336;28;20084;-48
2022/03/19 07:19:13;;;;;;;8.23;6.90;;;;;;;20.63;nan;100538.72;5111129;28;20570;-50
2022/03/19 07:21:39;;;;;;;7.78;6.50;;;;;;;20.63;nan;100530.38;5112750;28;20051;-47
2022/03/19 07:24:06;;;;;;;8.07;6.55;;;;;;;20.63;nan;100535.13;5112796;28;20055;-50
2022/03/19 07:26:33;;;;;;;8.50;6.57;;;;;;;20.63;nan;100535.94;5112725;28;20052;-49
2022/03/19 07:28:59;;;;;;;9.48;7.25;;;;;;;20.63;nan;100533.16;5113017;28;20074;-49
2022/03/19 07:31:25;;;;;;;6.97;5.93;;;;;;;20.64;nan;100542.31;5112522;28;20500;-47
2022/03/19 07:33:50;;;;;;;7.00;6.22;;;;;;;20.64;nan;100537.56;5112484;28;20051;-48
2022/03/19 07:36:19;;;;;;;7.68;6.47;;;;;;;20.63;nan;100541.50;5112594;28;20055;-47
2022/03/19 07:38:44;;;;;;;6.88;5.82;;;;;;;20.61;nan;100535.50;5112516;28;20042;-47
2022/03/19 07:43:54;;;;;;;7.03;6.13;;;;;;;20.62;nan;100542.66;5112521;28;20066;-47
2022/03/19 07:46:20;;;;;;;6.95;6.10;;;;;;;20.63;nan;100543.47;5112485;28;20043;-48
2022/03/19 07:48:46;;;;;;;8.10;6.78;;;;;;;20.62;nan;100548.22;5112408;28;20131;-50
2022/03/19 07:51:12;;;;;;;8.43;6.70;;;;;;;20.63;nan;100540.69;5093926;28;20049;-47
2022/03/19 07:53:37;;;;;;;7.38;5.95;;;;;;;20.63;nan;100547.06;5112165;28;20507;-47
2022/03/19 07:56:04;;;;;;;7.40;5.93;;;;;;;20.60;nan;100542.22;5112300;28;20104;-48
2022/03/19 07:58:29;;;;;;;7.35;6.22;;;;;;;20.63;nan;100541.50;5112167;28;20070;-47
2022/03/19 08:00:55;;;;;;;7.43;6.00;;;;;;;20.62;nan;100542.66;5112104;28;20082;-47
2022/03/19 08:03:21;;;;;;;6.95;6.00;;;;;;;20.63;nan;100544.28;5112150;28;20522;-48
2022/03/19 08:05:46;;;;;;;7.22;5.80;;;;;;;20.62;nan;100545.44;5112310;28;20043;-48
2022/03/19 08:08:12;;;;;;;6.65;5.32;;;;;;;20.63;nan;100540.69;5112152;28;20044;-48
2022/03/19 08:10:38;;;;;;;7.25;5.90;;;;;;;20.62;nan;100545.44;5112035;28;20093;-49
2022/03/19 08:13:05;;;;;;;7.30;6.03;;;;;;;20.63;nan;100535.13;5112180;28;20438;-47
2022/03/19 08:15:32;;;;;;;7.47;6.05;;;;;;;20.63;nan;100538.72;5111913;28;20507;-48
2022/03/19 08:17:59;;;;;;;6.88;5.60;;;;;;;20.62;nan;100537.09;5111950;28;20435;-47
2022/03/19 08:20:26;;;;;;;6.45;5.45;;;;;;;20.64;nan;100532.00;5111917;28;20035;-47
2022/03/19 08:22:51;;;;;;;6.40;5.43;;;;;;;20.66;nan;100535.28;5111967;28;20043;-47
2022/03/19 08:25:17;;;;;;;6.65;5.35;;;;;;;20.65;nan;100530.88;5111719;28;20048;-47
2022/03/19 08:27:42;;;;;;;6.47;5.32;;;;;;;20.65;nan;100535.63;5111806;28;20043;-49
2022/03/19 08:30:08;;;;;;;7.30;5.88;;;;;;;20.64;nan;100525.63;5111067;28;20040;-47
2022/03/19 08:32:34;;;;;;;6.45;5.50;;;;;;;20.66;nan;100526.13;5111620;28;20040;-49
2022/03/19 08:35:00;;;;;;;7.03;5.30;;;;;;;20.64;nan;100520.88;5111966;28;20131;-48
2022/03/19 08:37:26;;;;;;;6.50;5.63;;;;;;;20.66;nan;100524.16;5111640;28;20118;-48
2022/03/19 08:42:37;;;;;;;6.72;5.30;;;;;;;20.65;nan;100519.75;5111541;28;20063;-48
2022/03/19 08:45:02;;;;;;;7.40;5.97;;;;;;;20.66;nan;100518.59;5111408;28;20043;-48
2022/03/19 08:47:29;;;;;;;6.32;5.10;;;;;;;20.66;nan;100520.56;5111551;28;20099;-47
2022/03/19 08:49:55;;;;;;;6.25;5.07;;;;;;;20.67;nan;100517.44;5111408;28;20071;-49
2022/03/19 08:52:21;;;;;;;6.32;5.25;;;;;;;20.68;nan;100513.50;5111328;28;20085;-50
2022/03/19 08:54:46;;;;;;;7.07;5.60;;;;;;;20.66;nan;100510.25;5111466;28;20063;-50
2022/03/19 08:57:11;;;;;;;5.95;5.00;;;;;;;20.61;nan;100505.72;5111408;28;20035;-48
2022/03/19 08:59:37;;;;;;;6.03;4.93;;;;;;;20.64;nan;100512.53;5111163;28;20060;-52
2022/03/19 09:02:03;;;;;;;6.68;5.43;;;;;;;20.64;nan;100512.53;5111287;28;20100;-48
2022/03/19 09:04:28;;;;;;;6.90;5.40;;;;;;;20.63;nan;100510.94;5111068;28;20530;-48
2022/03/19 09:06:54;;;;;;;6.28;5.32;;;;;;;20.64;nan;100509.78;5111222;28;20040;-47
2022/03/19 09:09:20;;;;;;;5.95;5.10;;;;;;;20.63;nan;100510.94;5111309;28;20036;-48
2022/03/19 09:11:48;;;;;;;6.95;5.40;;;;;;;20.64;nan;100511.75;5111195;28;20139;-49
2022/03/19 09:14:14;;;;;;;7.10;5.43;;;;;;;20.64;nan;100509.78;5111108;28;20126;-49
2022/03/19 09:16:40;;;;;;;6.70;5.38;;;;;;;20.64;nan;100511.75;5110927;28;20051;-51
2022/03/19 09:19:06;;;;;;;6.38;5.20;;;;;;;20.62;nan;100517.66;5111009;28;20499;-50
2022/03/19 09:21:31;;;;;;;5.75;4.88;;;;;;;20.64;nan;100506.19;5110838;28;20058;-48
2022/03/19 09:23:57;;;;;;;5.85;4.95;;;;;;;20.64;nan;100520.88;5110492;28;20071;-49
2022/03/19 09:26:24;;;;;;;6.43;5.07;;;;;;;20.63;nan;100516.50;5110820;28;20051;-47
2022/03/19 09:28:50;;;;;;;6.45;5.15;;;;;;;20.62;nan;100509.31;5110849;28;20063;-49
2022/03/19 09:31:16;;;;;;;6.75;5.20;;;;;;;20.63;nan;100505.38;5110823;28;20096;-48
2022/03/19 09:33:43;;;;;;;6.13;5.18;;;;;;;20.62;nan;100503.75;5110797;28;20083;-50
2022/03/19 09:36:08;;;;;;;7.25;5.68;;;;;;;20.63;nan;100499.00;5110599;28;20105;-48
2022/03/19 09:38:34;;;;;;;6.85;5.30;;;;;;;20.62;nan;100498.19;5096296;28;20467;-48
2022/03/19 09:41:00;;;;;;;6.47;5.32;;;;;;;20.60;nan;100500.53;5090460;28;20098;-48
2022/03/19 09:43:27;;;;;;;7.07;5.60;;;;;;;20.60;nan;100500.53;5089165;28;20044;-48
2022/03/19 09:45:53;;;;;;;6.15;5.05;;;;;;;20.60;nan;100492.19;5090346;28;20048;-47
2022/03/19 09:48:19;;;;;;;6.50;5.25;;;;;;;20.59;nan;100485.00;5090277;28;20113;-48
2022/03/19 09:50:49;;;;;;;6.93;5.75;;;;;;;20.62;nan;100487.06;5090001;28;20036;-47
2022/03/19 09:53:23;;;;;;;6.72;5.32;;;;;;;20.61;nan;100482.69;5090012;28;20397;-47
2022/03/19 09:55:50;;;;;;;6.70;5.13;;;;;;;20.61;nan;100479.91;5090203;28;20055;-48
2022/03/19 09:58:16;;;;;;;6.60;5.60;;;;;;;20.60;nan;100478.28;5090007;28;20127;-48
2022/03/19 10:00:43;;;;;;;6.72;5.43;;;;;;;20.59;nan;100476.66;5089866;28;20044;-48
2022/03/19 10:03:10;;;;;;;6.57;5.32;;;;;;;20.60;nan;100478.28;5089689;28;20423;-48
2022/03/19 10:08:39;;;;;;;7.22;5.78;;;;;;;20.58;nan;100469.50;5089905;28;20564;-58
2022/03/19 10:11:07;;;;;;;7.03;5.82;;;;;;;20.57;nan;100470.63;5089533;28;20084;-59
2022/03/19 10:13:36;;;;;;;6.90;5.88;;;;;;;20.56;nan;100469.00;5089759;28;20044;-59
2022/03/19 10:16:02;;;;;;;6.93;5.75;;;;;;;20.58;nan;100456.41;5089760;28;21053;-50
2022/03/19 10:18:29;;;;;;;6.63;5.47;;;;;;;20.58;nan;100458.38;5089741;28;20044;-58
2022/03/19 10:20:55;;;;;;;6.28;5.10;;;;;;;20.57;nan;100456.72;5089520;28;20090;-58
2022/03/19 10:23:39;;;;;;;7.78;5.68;;;;;;;20.56;nan;100452.31;5089609;28;20040;-58
2022/03/19 10:26:05;;;;;;;7.25;5.72;;;;;;;20.56;nan;100444.78;5089634;28;20048;-59
2022/03/19 10:28:33;;;;;;;6.55;5.25;;;;;;;20.57;nan;100448.38;5089417;28;20048;-59
2022/03/19 10:30:59;;;;;;;7.65;5.80;;;;;;;20.57;nan;100446.44;5089633;28;20131;-59
2022/03/19 10:33:32;;;;;;;7.85;6.13;;;;;;;20.55;nan;100434.03;5089545;28;20439;-58
2022/03/19 10:36:06;;;;;;;8.25;6.30;;;;;;;20.54;nan;100426.84;5089459;28;20119;-59
2022/03/19 10:38:48;;;;;;;7.35;5.97;;;;;;;20.56;nan;100433.69;5089322;28;20040;-59
2022/03/19 10:41:17;;;;;;;7.43;6.07;;;;;;;20.57;nan;100426.16;5089323;28;20048;-59
2022/03/19 10:43:47;;;;;;;6.82;5.60;;;;;;;20.56;nan;100411.44;5089443;28;20420;-48
2022/03/19 10:46:18;;;;;;;6.88;5.80;;;;;;;20.55;nan;100415.38;5089682;28;20032;-48
2022/03/19 10:48:53;;;;;;;8.13;5.95;;;;;;;20.56;nan;100408.66;5089381;28;20127;-48
2022/03/19 10:51:20;;;;;;;7.18;6.00;;;;;;;20.57;nan;100406.69;5089359;28;20126;-59
2022/03/19 10:53:46;;;;;;;7.30;5.90;;;;;;;20.59;nan;100401.63;5090271;28;20454;-59
2022/03/19 10:56:12;;;;;;;7.45;5.78;;;;;;;20.58;nan;100391.66;5092903;28;20063;-59
2022/03/19 10:58:38;;;;;;;6.68;5.60;;;;;;;20.57;nan;100396.41;5092849;28;20051;-58
2022/03/19 11:01:07;;;;;;;6.68;5.63;;;;;;;20.58;nan;100391.66;5092830;28;20522;-59
2022/03/19 11:03:37;;;;;;;6.65;5.40;;;;;;;20.59;nan;100384.94;5092780;28;20086;-59
2022/03/19 11:06:05;;;;;;;7.03;5.68;;;;;;;20.59;nan;100380.19;5092996;28;20050;-59
2022/03/19 11:08:38;;;;;;;6.60;5.15;;;;;;;20.59;nan;100376.59;5074593;28;20536;-59
2022/03/19 11:11:14;;;;;;;7.75;5.97;;;;;;;20.58;nan;100370.22;5092633;28;20063;-58
2022/03/19 11:13:43;;;;;;;7.07;5.85;;;;;;;20.60;nan;100365.13;5092471;28;20036;-59
2022/03/19 11:16:10;;;;;;;6.95;5.65;;;;;;;20.59;nan;100359.91;5092429;28;20400;-59
2022/03/19 11:18:38;;;;;;;7.18;5.63;;;;;;;20.61;nan;100360.38;5092495;28;20040;-58
2022/03/19 11:21:04;;;;;;;7.05;5.65;;;;;;;20.61;nan;100360.38;5092507;28;20052;-59
2022/03/19 11:23:41;;;;;;;6.93;5.55;;;;;;;20.61;nan;100363.16;5092560;28;20559;-59
2022/03/19 11:26:11;;;;;;;7.35;5.93;;;;;;;20.64;nan;100354.09;5092499;28;20109;-59
2022/03/19 11:28:37;;;;;;;6.00;5.28;;;;;;;20.66;nan;100351.00;5092566;28;20046;-58
2022/03/19 11:31:09;;;;;;;6.78;5.30;;;;;;;20.64;nan;100342.97;5092424;28;20040;-59
2022/03/19 11:33:38;;;;;;;5.93;4.85;;;;;;;20.68;nan;100340.31;5092314;28;20467;-58
2022/03/19 11:36:05;;;;;;;6.40;5.07;;;;;;;20.68;nan;100337.53;5092611;28;20044;-59
2022/03/19 11:38:32;;;;;;;6.30;5.10;;;;;;;20.69;nan;100339.97;5092193;28;20040;-59
2022/03/19 11:40:59;;;;;;;6.32;5.28;;;;;;;20.68;nan;100329.19;5092264;28;20211;-59
2022/03/19 11:43:25;;;;;;;6.65;4.70;;;;;;;20.71;nan;100323.72;5092099;28;20044;-59
2022/03/19 11:46:02;;;;;;;6.70;5.22;;;;;;;20.69;nan;100320.50;5091975;28;20128;-59
2022/03/19 11:48:36;;;;;;;6.43;5.22;;;;;;;20.70;nan;100315.75;5091938;28;20063;-59
2022/03/19 11:51:28;;;;;;;8.43;5.68;;;;;;;20.71;nan;100314.59;5091932;28;20480;-59
2022/03/19 11:54:09;;;;;;;6.45;5.25;;;;;;;20.71;nan;100306.25;5092443;28;20051;-58
2022/03/19 11:56:38;;;;;;;6.38;5.32;;;;;;;20.72;nan;100305.91;5091932;28;20068;-58